Time;durP1;ratioP1;P1;durP2;ratioP2;P2;SDS_P1;SDS_P2;PMS_P1;PMS_P2;Temp;Humidity;BMP_temperature;BMP_pressure;BME280_temperature;BME280_humidity;BME280_pressure;Samples;Min_cycle;Max_cycle;Signal;HPM_P1;HPM_P2
2022/10/02 00:00:47;;;;;;;;;;;12.00;99.90;;;;;;5108364;28;20329;-75
2022/10/02 00:03:16;;;;;;;;;;;12.00;99.90;;;;;;5108318;28;19931;-74
2022/10/02 00:05:43;;;;;;;;;;;12.00;99.90;;;;;;5107187;28;20293;-75
2022/10/02 00:08:12;;;;;;;;;;;12.00;99.90;;;;;;5122267;27;19981;-75
2022/10/02 00:10:43;;;;;;;;;;;12.00;99.90;;;;;;5107340;28;19923;-75
2022/10/02 00:13:15;;;;;;;;;;;11.90;99.90;;;;;;5108257;28;19934;-75
2022/10/02 00:15:41;;;;;;;;;;;12.00;99.90;;;;;;5107720;28;19923;-75
2022/10/02 00:18:14;;;;;;;;;;;12.00;99.90;;;;;;5107755;28;19976;-75
2022/10/02 00:20:49;;;;;;;;;;;11.90;99.90;;;;;;5087236;28;19924;-74
2022/10/02 00:23:20;;;;;;;;;;;11.90;99.90;;;;;;5106807;28;20198;-75
2022/10/02 00:25:55;;;;;;;;;;;11.90;99.90;;;;;;5106268;28;19958;-75
2022/10/02 00:28:30;;;;;;;;;;;11.90;99.90;;;;;;5107962;28;19971;-74
2022/10/02 00:30:55;;;;;;;;;;;11.90;99.90;;;;;;5089911;28;19924;-75
2022/10/02 00:33:28;;;;;;;;;;;11.80;99.90;;;;;;5107714;28;19973;-74
2022/10/02 00:36:02;;;;;;;;;;;11.80;99.90;;;;;;5107199;28;19979;-74
2022/10/02 00:38:48;;;;;;;;;;;11.70;99.90;;;;;;5107590;28;20499;-74
2022/10/02 00:41:33;;;;;;;;;;;11.70;99.90;;;;;;5106693;28;19923;-74
2022/10/02 00:44:17;;;;;;;;;;;11.70;99.90;;;;;;5089823;28;20326;-74
2022/10/02 00:46:45;;;;;;;;;;;11.60;99.90;;;;;;5106725;28;19924;-75
2022/10/02 00:49:17;;;;;;;;;;;11.60;99.90;;;;;;5107149;28;19947;-74
2022/10/02 00:51:42;;;;;;;;;;;11.50;99.90;;;;;;5107645;28;19924;-74
2022/10/02 00:54:16;;;;;;;;;;;11.50;99.90;;;;;;5107362;28;19920;-75
2022/10/02 00:56:48;;;;;;;;;;;11.40;99.90;;;;;;5106289;28;19966;-74
2022/10/02 00:59:13;;;;;;;;;;;11.40;99.90;;;;;;5107452;28;19947;-74
2022/10/02 01:04:35;;;;;;;;;;;11.40;99.90;;;;;;4994678;22;19925;-76
2022/10/02 01:07:01;;;;;;;;;;;11.40;99.90;;;;;;4987821;28;19926;-76
2022/10/02 01:09:27;;;;;;;;;;;11.40;99.90;;;;;;4988090;28;19972;-74
2022/10/02 01:11:52;;;;;;;;;;;11.40;99.90;;;;;;4986387;28;19930;-75
2022/10/02 01:14:18;;;;;;;;;;;11.30;99.90;;;;;;4986681;28;20398;-75
2022/10/02 01:16:44;;;;;;;;;;;11.30;99.90;;;;;;4970261;28;19933;-74
2022/10/02 01:19:19;;;;;;;;;;;11.30;99.90;;;;;;4987618;28;20299;-75
2022/10/02 01:21:47;;;;;;;;;;;11.30;99.90;;;;;;4969818;28;19932;-75
2022/10/02 01:24:21;;;;;;;;;;;11.20;99.90;;;;;;4970527;28;19968;-76
2022/10/02 01:26:46;;;;;;;;;;;11.30;99.90;;;;;;4986513;28;20458;-75
2022/10/02 01:29:12;;;;;;;;;;;11.20;99.90;;;;;;4970484;28;19926;-74
2022/10/02 01:31:38;;;;;;;;;;;11.20;99.90;;;;;;4986926;28;19926;-75
2022/10/02 01:34:03;;;;;;;;;;;11.10;99.90;;;;;;4969932;28;19926;-74
2022/10/02 01:36:29;;;;;;;;;;;11.10;99.90;;;;;;4987082;28;19968;-74
2022/10/02 01:38:55;;;;;;;;;;;11.10;99.90;;;;;;4970930;28;19980;-75
2022/10/02 01:41:20;;;;;;;;;;;11.20;99.90;;;;;;4985908;28;19928;-74
2022/10/02 01:43:50;;;;;;;;;;;11.10;99.90;;;;;;4969485;28;20017;-75
2022/10/02 01:46:16;;;;;;;;;;;11.10;99.90;;;;;;4969817;28;19926;-76
2022/10/02 01:48:51;;;;;;;;;;;11.10;99.90;;;;;;4969589;28;19964;-73
2022/10/02 01:51:22;;;;;;;;;;;11.00;99.90;;;;;;4953546;28;20431;-75
2022/10/02 01:54:07;;;;;;;;;;;11.00;99.90;;;;;;4969340;28;20064;-74
2022/10/02 01:56:53;;;;;;;;;;;11.10;99.90;;;;;;4985711;28;19933;-75
2022/10/02 01:59:33;;;;;;;;;;;11.10;99.90;;;;;;4986444;28;19926;-74
2022/10/02 02:02:06;;;;;;;;;;;11.20;99.90;;;;;;4969873;28;19926;-75
2022/10/02 02:04:46;;;;;;;;;;;11.20;99.90;;;;;;4986996;28;19926;-74
2022/10/02 02:07:18;;;;;;;;;;;11.30;99.90;;;;;;4969420;28;19980;-73
2022/10/02 02:09:49;;;;;;;;;;;11.30;99.90;;;;;;4969044;28;20392;-76
2022/10/02 02:12:19;;;;;;;;;;;11.40;99.90;;;;;;4967901;28;19932;-73
2022/10/02 02:14:46;;;;;;;;;;;11.40;99.90;;;;;;4968774;28;19926;-74
2022/10/02 02:17:12;;;;;;;;;;;11.40;99.90;;;;;;4969362;28;19932;-76
2022/10/02 02:19:42;;;;;;;;;;;11.50;99.90;;;;;;4986590;28;19926;-74
2022/10/02 02:22:23;;;;;;;;;;;11.50;99.90;;;;;;5001241;28;19926;-74
2022/10/02 02:25:10;;;;;;;;;;;11.50;99.90;;;;;;5001637;28;19933;-75
2022/10/02 02:27:38;;;;;;;;;;;11.50;99.90;;;;;;5001595;28;19932;-76
2022/10/02 02:30:08;;;;;;;;;;;11.60;99.90;;;;;;4986965;28;20281;-74
2022/10/02 02:32:38;;;;;;;;;;;11.60;99.90;;;;;;4985795;28;20013;-74
2022/10/02 02:35:16;;;;;;;;;;;11.60;99.90;;;;;;4986346;28;20576;-74
2022/10/02 02:37:43;;;;;;;;;;;11.50;99.90;;;;;;4986241;28;19936;-74
2022/10/02 02:40:12;;;;;;;;;;;11.60;99.90;;;;;;4985759;28;19930;-74
2022/10/02 02:42:40;;;;;;;;;;;11.60;99.90;;;;;;4985849;28;19925;-76
2022/10/02 02:45:10;;;;;;;;;;;11.60;99.90;;;;;;4986561;28;19976;-75
2022/10/02 02:47:39;;;;;;;;;;;11.70;99.90;;;;;;4968892;28;19925;-74
2022/10/02 02:50:19;;;;;;;;;;;11.70;99.90;;;;;;4986195;28;19932;-73
2022/10/02 02:53:11;;;;;;;;;;;11.70;99.90;;;;;;4986118;28;19926;-75
2022/10/02 02:55:40;;;;;;;;;;;11.70;99.90;;;;;;4969002;28;19984;-75
2022/10/02 02:58:09;;;;;;;;;;;11.70;99.90;;;;;;4985815;28;19926;-76
2022/10/02 03:00:34;;;;;;;;;;;11.70;99.90;;;;;;4985678;28;20016;-75
2022/10/02 03:03:00;;;;;;;;;;;11.80;99.90;;;;;;4985579;28;20496;-75
2022/10/02 03:05:26;;;;;;;;;;;11.80;99.90;;;;;;4969058;28;19925;-76
2022/10/02 03:07:53;;;;;;;;;;;11.80;99.90;;;;;;4968715;28;19925;-74
2022/10/02 03:10:35;;;;;;;;;;;11.80;99.90;;;;;;4984896;28;19925;-74
2022/10/02 03:13:16;;;;;;;;;;;11.90;99.90;;;;;;4968456;28;19937;-76
2022/10/02 03:16:00;;;;;;;;;;;11.90;99.90;;;;;;4985917;28;19976;-74
2022/10/02 03:18:35;;;;;;;;;;;11.90;99.90;;;;;;5000999;28;19930;-75
2022/10/02 03:21:05;;;;;;;;;;;11.90;99.90;;;;;;5000911;28;19926;-75
2022/10/02 03:23:43;;;;;;;;;;;11.90;99.90;;;;;;5000614;28;19925;-75
2022/10/02 03:26:15;;;;;;;;;;;11.90;99.90;;;;;;4967545;28;20056;-74
2022/10/02 03:28:52;;;;;;;;;;;11.90;99.90;;;;;;5001076;28;20268;-74
2022/10/02 03:31:18;;;;;;;;;;;12.00;99.90;;;;;;4985652;28;20344;-75
2022/10/02 03:33:44;;;;;;;;;;;12.00;99.90;;;;;;5000523;28;19926;-75
2022/10/02 03:36:11;;;;;;;;;;;11.90;99.90;;;;;;5000146;28;19933;-75
2022/10/02 03:38:36;;;;;;;;;;;11.90;99.90;;;;;;4985196;28;19926;-75
2022/10/02 03:41:02;;;;;;;;;;;11.90;99.90;;;;;;4984906;28;19956;-74
2022/10/02 03:43:28;;;;;;;;;;;11.90;99.90;;;;;;4968292;28;19926;-76
2022/10/02 03:45:54;;;;;;;;;;;11.90;99.90;;;;;;4984941;28;19926;-74
2022/10/02 03:48:19;;;;;;;;;;;11.90;99.90;;;;;;4967841;28;20567;-74
2022/10/02 03:50:45;;;;;;;;;;;11.90;99.90;;;;;;4985546;28;20292;-74
2022/10/02 03:53:15;;;;;;;;;;;11.90;99.90;;;;;;4985213;28;20016;-74
2022/10/02 03:55:44;;;;;;;;;;;11.80;99.90;;;;;;4964340;28;19927;-75
2022/10/02 03:58:16;;;;;;;;;;;11.90;99.90;;;;;;4967935;28;19961;-76
2022/10/02 04:00:46;;;;;;;;;;;11.90;99.90;;;;;;4967760;28;19991;-76
2022/10/02 04:03:14;;;;;;;;;;;11.80;99.90;;;;;;4968096;28;19937;-75
2022/10/02 04:05:48;;;;;;;;;;;11.80;99.90;;;;;;4985521;28;19925;-74
2022/10/02 04:08:19;;;;;;;;;;;11.90;99.90;;;;;;4967959;28;19922;-74
2022/10/02 04:11:03;;;;;;;;;;;11.80;99.90;;;;;;4984441;28;19984;-75
2022/10/02 04:13:32;;;;;;;;;;;11.80;99.90;;;;;;4985605;28;19926;-75
2022/10/02 04:16:01;;;;;;;;;;;11.80;99.90;;;;;;4967939;28;20313;-75
2022/10/02 04:18:32;;;;;;;;;;;11.80;99.90;;;;;;5000559;28;19969;-75
2022/10/02 04:21:01;;;;;;;;;;;11.80;99.90;;;;;;4986006;28;19930;-75
2022/10/02 04:23:32;;;;;;;;;;;11.70;99.90;;;;;;4987886;28;19926;-75
2022/10/02 04:26:05;;;;;;;;;;;11.70;99.90;;;;;;4987856;28;19926;-75
2022/10/02 04:28:36;;;;;;;;;;;11.70;99.90;;;;;;5003804;28;20441;-75
2022/10/02 04:31:06;;;;;;;;;;;11.70;99.90;;;;;;4988974;28;20072;-75
2022/10/02 04:33:32;;;;;;;;;;;11.70;99.90;;;;;;4970672;28;19938;-74
2022/10/02 04:35:57;;;;;;;;;;;11.70;99.90;;;;;;4971703;28;20442;-75
2022/10/02 04:38:41;;;;;;;;;;;11.70;99.90;;;;;;4988443;28;19926;-75
2022/10/02 04:41:19;;;;;;;;;;;11.70;99.90;;;;;;4987713;28;19926;-74
2022/10/02 04:43:59;;;;;;;;;;;11.70;99.90;;;;;;4988290;28;19925;-75
2022/10/02 04:46:37;;;;;;;;;;;11.60;99.90;;;;;;4988714;28;19957;-75
2022/10/02 04:49:08;;;;;;;;;;;11.60;99.90;;;;;;4988365;28;20299;-74
2022/10/02 04:51:33;;;;;;;;;;;11.60;99.90;;;;;;4970787;28;19968;-75
2022/10/02 04:54:07;;;;;;;;;;;11.60;99.90;;;;;;4971651;28;20631;-75
2022/10/02 04:56:32;;;;;;;;;;;11.50;99.90;;;;;;4969748;28;19932;-74
2022/10/02 04:59:04;;;;;;;;;;;11.50;99.90;;;;;;5004340;28;19926;-74
2022/10/02 05:01:48;;;;;;;;;;;11.50;99.90;;;;;;5003062;28;19933;-76
2022/10/02 05:04:14;;;;;;;;;;;11.50;99.90;;;;;;4971190;28;19926;-74
2022/10/02 05:06:48;;;;;;;;;;;11.50;99.90;;;;;;4950506;28;19946;-76
2022/10/02 05:09:32;;;;;;;;;;;11.40;99.90;;;;;;4968092;28;19922;-75
2022/10/02 05:12:16;;;;;;;;;;;11.40;99.90;;;;;;4950557;28;20412;-75
2022/10/02 05:14:51;;;;;;;;;;;11.40;99.90;;;;;;4931666;29;19926;-74
2022/10/02 05:17:17;;;;;;;;;;;11.40;99.90;;;;;;4968145;28;19933;-75
2022/10/02 05:19:42;;;;;;;;;;;11.30;99.90;;;;;;4951012;28;19927;-73
2022/10/02 05:22:22;;;;;;;;;;;11.30;99.90;;;;;;4983490;28;19926;-76
2022/10/02 05:24:56;;;;;;;;;;;11.30;99.90;;;;;;4967338;28;20340;-74
2022/10/02 05:27:25;;;;;;;;;;;11.20;99.90;;;;;;4968114;28;19941;-75
2022/10/02 05:29:57;;;;;;;;;;;11.20;99.90;;;;;;4967657;28;20380;-74
2022/10/02 05:32:32;;;;;;;;;;;11.20;99.90;;;;;;4968060;28;19989;-74
2022/10/02 05:34:58;;;;;;;;;;;11.20;99.90;;;;;;4968591;28;19926;-74
2022/10/02 05:37:35;;;;;;;;;;;11.10;99.90;;;;;;4983013;28;20478;-75
2022/10/02 05:40:05;;;;;;;;;;;11.20;99.90;;;;;;4959573;28;19930;-74
2022/10/02 05:42:35;;;;;;;;;;;11.10;99.90;;;;;;4949797;28;20016;-75
2022/10/02 05:45:10;;;;;;;;;;;11.10;99.90;;;;;;4966392;28;19937;-74
2022/10/02 05:47:41;;;;;;;;;;;11.10;99.90;;;;;;4950382;28;20211;-74
2022/10/02 05:50:22;;;;;;;;;;;11.10;99.90;;;;;;4982599;28;19930;-75
2022/10/02 05:52:56;;;;;;;;;;;11.10;99.90;;;;;;4950318;28;20344;-75
2022/10/02 05:55:30;;;;;;;;;;;11.10;99.90;;;;;;4981812;28;19954;-75
2022/10/02 05:57:59;;;;;;;;;;;11.10;99.90;;;;;;4966460;28;20604;-75
2022/10/02 06:00:31;;;;;;;;;;;11.10;99.90;;;;;;4982856;28;19930;-75
2022/10/02 06:03:03;;;;;;;;;;;11.20;99.90;;;;;;4955323;28;19999;-75
2022/10/02 06:05:34;;;;;;;;;;;11.20;99.90;;;;;;4979150;28;20380;-76
2022/10/02 06:08:01;;;;;;;;;;;11.20;99.90;;;;;;4969879;28;20012;-76
2022/10/02 06:10:29;;;;;;;;;;;11.30;99.90;;;;;;4986323;28;19926;-75
2022/10/02 06:13:05;;;;;;;;;;;11.30;99.90;;;;;;5002272;28;20296;-74
2022/10/02 06:16:00;;;;;;;;;;;11.30;99.90;;;;;;4968472;28;19992;-75
2022/10/02 06:18:28;;;;;;;;;;;11.40;99.90;;;;;;4969780;28;20315;-76
2022/10/02 06:21:17;;;;;;;;;;;11.40;99.90;;;;;;4986860;28;19926;-75
2022/10/02 06:23:45;;;;;;;;;;;11.40;99.90;;;;;;4960905;28;19926;-75
2022/10/02 06:26:23;;;;;;;;;;;11.50;99.90;;;;;;4985406;28;19990;-74
2022/10/02 06:28:51;;;;;;;;;;;11.50;99.90;;;;;;4986287;28;20539;-76
2022/10/02 06:31:20;;;;;;;;;;;11.60;99.90;;;;;;4986304;28;20016;-75
2022/10/02 06:33:46;;;;;;;;;;;11.70;99.90;;;;;;4986358;28;19925;-75
2022/10/02 06:36:15;;;;;;;;;;;11.60;99.90;;;;;;4985998;28;19937;-76
2022/10/02 06:38:59;;;;;;;;;;;11.70;99.90;;;;;;4996910;28;20009;-75
2022/10/02 06:41:37;;;;;;;;;;;11.70;99.90;;;;;;4999106;28;19930;-75
2022/10/02 06:44:06;;;;;;;;;;;11.70;99.90;;;;;;4986459;28;20035;-76
2022/10/02 06:46:43;;;;;;;;;;;11.70;99.90;;;;;;4985565;28;19972;-75
2022/10/02 06:49:24;;;;;;;;;;;11.70;99.90;;;;;;4968845;28;20020;-76
2022/10/02 06:51:58;;;;;;;;;;;11.70;99.90;;;;;;4968621;28;19988;-75
2022/10/02 06:54:35;;;;;;;;;;;11.70;99.90;;;;;;4985868;28;19930;-77
2022/10/02 06:57:27;;;;;;;;;;;11.70;99.90;;;;;;5000940;28;19933;-76
2022/10/02 06:59:56;;;;;;;;;;;11.70;99.90;;;;;;4966049;28;19926;-74
2022/10/02 07:02:27;;;;;;;;;;;11.80;99.90;;;;;;4983413;28;19926;-76
2022/10/02 07:05:06;;;;;;;;;;;11.80;99.90;;;;;;4980881;28;19929;-75
2022/10/02 07:07:31;;;;;;;;;;;11.80;99.90;;;;;;4981697;28;19984;-75
2022/10/02 07:10:06;;;;;;;;;;;11.90;99.90;;;;;;4980677;28;20732;-75
2022/10/02 07:12:47;;;;;;;;;;;11.90;99.90;;;;;;4980018;28;19930;-76
2022/10/02 07:15:24;;;;;;;;;;;11.90;99.90;;;;;;4966137;28;19926;-76
2022/10/02 07:18:05;;;;;;;;;;;11.90;99.90;;;;;;4987739;28;20545;-77
2022/10/02 07:20:31;;;;;;;;;;;11.90;99.90;;;;;;4966186;28;19973;-77
2022/10/02 07:22:56;;;;;;;;;;;11.90;99.90;;;;;;4966688;28;20427;-75
2022/10/02 07:25:25;;;;;;;;;;;11.90;99.90;;;;;;4955799;28;19922;-77
2022/10/02 07:28:03;;;;;;;;;;;11.90;99.90;;;;;;4948987;28;19930;-76
2022/10/02 07:30:33;;;;;;;;;;;12.00;99.90;;;;;;4969174;28;20028;-78
2022/10/02 07:33:01;;;;;;;;;;;12.00;99.90;;;;;;4958185;28;19926;-76
2022/10/02 07:35:33;;;;;;;;;;;12.10;99.90;;;;;;4966176;28;19926;-77
2022/10/02 07:38:18;;;;;;;;;;;12.20;99.90;;;;;;4981355;28;19926;-75
2022/10/02 07:41:07;;;;;;;;;;;12.30;99.90;;;;;;4958968;28;19930;-75
2022/10/02 07:43:52;;;;;;;;;;;12.40;99.90;;;;;;4943215;28;19933;-73
2022/10/02 07:46:17;;;;;;;;;;;12.50;99.90;;;;;;4965798;28;19926;-73
2022/10/02 07:48:42;;;;;;;;;;;12.50;99.90;;;;;;4965072;28;19922;-75
2022/10/02 07:54:09;;;;;;;;;;;12.50;99.90;;;;;;4965401;28;19980;-76
2022/10/02 07:56:34;;;;;;;;;;;12.50;99.90;;;;;;4963519;28;19980;-75
2022/10/02 07:59:05;;;;;;;;;;;12.60;99.90;;;;;;4960298;28;19930;-74
2022/10/02 08:01:32;;;;;;;;;;;12.60;99.90;;;;;;4968665;28;19954;-75
2022/10/02 08:03:59;;;;;;;;;;;12.70;99.90;;;;;;5015080;28;19929;-76
2022/10/02 08:06:25;;;;;;;;;;;12.80;99.90;;;;;;4994928;28;19952;-75
2022/10/02 08:08:58;;;;;;;;;;;12.80;99.90;;;;;;4987168;28;19926;-75
2022/10/02 08:11:42;;;;;;;;;;;12.90;99.90;;;;;;4986029;28;19933;-77
2022/10/02 08:14:28;;;;;;;;;;;12.90;99.90;;;;;;5005883;28;19922;-75
2022/10/02 08:16:56;;;;;;;;;;;12.90;99.90;;;;;;4986408;28;19949;-75
2022/10/02 08:19:29;;;;;;;;;;;12.90;99.90;;;;;;4988085;28;19926;-78
2022/10/02 08:22:00;;;;;;;;;;;12.90;99.90;;;;;;4998505;28;20436;-74
2022/10/02 08:24:29;;;;;;;;;;;12.90;99.90;;;;;;4970030;28;19926;-77
2022/10/02 08:27:01;;;;;;;;;;;12.90;99.90;;;;;;4971201;28;19933;-76
2022/10/02 08:29:27;;;;;;;;;;;13.00;99.90;;;;;;4987099;28;19926;-75
2022/10/02 08:31:53;;;;;;;;;;;13.10;99.90;;;;;;4970682;28;20004;-75
2022/10/02 08:34:19;;;;;;;;;;;13.10;99.90;;;;;;4988245;28;20018;-74
2022/10/02 08:37:03;;;;;;;;;;;13.20;99.90;;;;;;4987516;28;20460;-74
2022/10/02 08:39:58;;;;;;;;;;;13.30;99.90;;;;;;4987519;28;20335;-76
2022/10/02 08:42:36;;;;;;;;;;;13.50;99.90;;;;;;4950539;28;20098;-75
2022/10/02 08:45:26;;;;;;;;;;;13.60;99.90;;;;;;4975056;28;19930;-77
2022/10/02 08:48:22;;;;;;;;;;;13.60;99.90;;;;;;5001871;28;19926;-76
2022/10/02 08:51:16;;;;;;;;;;;13.70;99.90;;;;;;4986357;28;19933;-74
2022/10/02 08:53:45;;;;;;;;;;;13.70;99.90;;;;;;4969473;28;19933;-76
2022/10/02 08:56:23;;;;;;;;;;;13.60;99.90;;;;;;4968956;28;19936;-74
2022/10/02 08:59:07;;;;;;;;;;;13.60;99.90;;;;;;4987090;28;19945;-75
2022/10/02 09:01:39;;;;;;;;;;;13.60;99.90;;;;;;4969508;28;19965;-74
2022/10/02 09:04:37;;;;;;;;;;;13.60;99.90;;;;;;4971580;28;19930;-75
2022/10/02 09:07:05;;;;;;;;;;;13.60;99.90;;;;;;4967865;28;19999;-77
2022/10/02 09:09:53;;;;;;;;;;;13.60;99.90;;;;;;4967276;28;20320;-77
2022/10/02 09:12:22;;;;;;;;;;;13.70;99.90;;;;;;4932955;28;19922;-77
2022/10/02 09:14:49;;;;;;;;;;;13.70;99.90;;;;;;4983555;28;19926;-77
2022/10/02 09:17:16;;;;;;;;;;;13.70;99.90;;;;;;4983688;28;20023;-77
2022/10/02 09:19:48;;;;;;;;;;;13.70;99.90;;;;;;4968081;28;19926;-77
2022/10/02 09:22:29;;;;;;;;;;;13.80;99.90;;;;;;4951253;28;19926;-77
2022/10/02 09:25:00;;;;;;;;;;;13.80;99.90;;;;;;4969057;28;20389;-76
2022/10/02 09:27:28;;;;;;;;;;;13.90;99.90;;;;;;4976220;28;19926;-80
2022/10/02 09:30:03;;;;;;;;;;;14.00;99.90;;;;;;4968026;28;19927;-79
2022/10/02 09:32:49;;;;;;;;;;;14.10;99.90;;;;;;4968169;28;19930;-78
2022/10/02 09:35:33;;;;;;;;;;;14.20;99.90;;;;;;4923021;28;20017;-78
2022/10/02 09:38:03;;;;;;;;;;;14.20;99.90;;;;;;4969226;28;20289;-77
2022/10/02 09:40:41;;;;;;;;;;;14.20;99.90;;;;;;4966352;28;19922;-75
2022/10/02 09:43:10;;;;;;;;;;;14.20;99.90;;;;;;4952082;28;19926;-77
2022/10/02 09:45:54;;;;;;;;;;;14.20;99.90;;;;;;4949189;28;19928;-77
2022/10/02 09:48:41;;;;;;;;;;;14.20;99.90;;;;;;4954384;28;20028;-77
2022/10/02 09:51:26;;;;;;;;;;;14.20;99.90;;;;;;4967522;28;19926;-77
2022/10/02 09:54:10;;;;;;;;;;;14.20;99.90;;;;;;4950510;28;19969;-76
2022/10/02 09:56:36;;;;;;;;;;;14.20;99.90;;;;;;4966420;28;20008;-79
2022/10/02 09:59:20;;;;;;;;;;;14.20;99.90;;;;;;4968005;28;20004;-78
2022/10/02 10:01:46;;;;;;;;;;;14.10;99.90;;;;;;4961445;28;19980;-77
2022/10/02 10:04:26;;;;;;;;;;;14.20;99.90;;;;;;4968369;28;20300;-82
2022/10/02 10:07:01;;;;;;;;;;;14.20;99.90;;;;;;4970477;28;19933;-74
2022/10/02 10:09:45;;;;;;;;;;;14.20;99.90;;;;;;4949424;28;19933;-74
2022/10/02 10:12:17;;;;;;;;;;;14.30;99.90;;;;;;4966757;28;20308;-74
2022/10/02 10:14:47;;;;;;;;;;;14.40;99.90;;;;;;4981924;28;19926;-74
2022/10/02 10:17:30;;;;;;;;;;;14.50;99.90;;;;;;4981557;28;19945;-73
2022/10/02 10:20:21;;;;;;;;;;;14.50;99.90;;;;;;4966479;28;20448;-74
2022/10/02 10:23:05;;;;;;;;;;;14.50;99.90;;;;;;4966228;28;19933;-74
2022/10/02 10:25:49;;;;;;;;;;;14.50;99.90;;;;;;4948093;28;19930;-74
2022/10/02 10:28:42;;;;;;;;;;;14.50;99.90;;;;;;4981531;28;20456;-75
2022/10/02 10:31:08;;;;;;;;;;;14.50;99.90;;;;;;4981558;28;20392;-74
2022/10/02 10:33:37;;;;;;;;;;;14.50;99.90;;;;;;4956541;28;20408;-75
2022/10/02 10:36:02;;;;;;;;;;;14.50;99.90;;;;;;4966523;28;19926;-74
2022/10/02 10:38:37;;;;;;;;;;;14.40;99.90;;;;;;4962362;28;19933;-74
2022/10/02 10:41:02;;;;;;;;;;;14.40;99.90;;;;;;4963872;28;20383;-74
2022/10/02 10:43:57;;;;;;;;;;;14.30;99.90;;;;;;4966512;28;19925;-75
2022/10/02 10:46:25;;;;;;;;;;;14.30;99.90;;;;;;4966270;28;20344;-74
2022/10/02 10:49:09;;;;;;;;;;;14.30;99.90;;;;;;4965779;28;19930;-77
2022/10/02 10:51:44;;;;;;;;;;;14.30;99.90;;;;;;4973560;28;19926;-76
2022/10/02 10:54:16;;;;;;;;;;;14.30;99.90;;;;;;4955960;28;20474;-71
2022/10/02 10:56:42;;;;;;;;;;;14.30;99.90;;;;;;4965349;28;20024;-72
2022/10/02 10:59:26;;;;;;;;;;;14.40;99.90;;;;;;4965787;28;20021;-78
2022/10/02 11:02:01;;;;;;;;;;;14.40;99.90;;;;;;4952092;28;20043;-72
2022/10/02 11:04:35;;;;;;;;;;;14.40;99.90;;;;;;4995574;28;19925;-73
2022/10/02 11:07:06;;;;;;;;;;;14.40;99.90;;;;;;4964175;28;20381;-72
2022/10/02 11:09:41;;;;;;;;;;;14.50;99.90;;;;;;4955249;28;19926;-72
2022/10/02 11:12:17;;;;;;;;;;;14.50;99.90;;;;;;4957282;28;19965;-74
2022/10/02 11:14:52;;;;;;;;;;;14.50;99.90;;;;;;4965175;28;20384;-73
2022/10/02 11:17:27;;;;;;;;;;;14.60;99.90;;;;;;4964599;28;19969;-71
2022/10/02 11:20:11;;;;;;;;;;;14.60;99.90;;;;;;4963941;28;19926;-71
2022/10/02 11:22:51;;;;;;;;;;;14.60;99.90;;;;;;4964073;28;20024;-72
2022/10/02 11:25:35;;;;;;;;;;;14.60;99.90;;;;;;4965110;28;20309;-73
2022/10/02 11:28:09;;;;;;;;;;;14.50;99.90;;;;;;4962586;28;19973;-72
2022/10/02 11:30:52;;;;;;;;;;;14.40;99.90;;;;;;4964120;28;19933;-73
2022/10/02 11:33:30;;;;;;;;;;;14.40;99.90;;;;;;4969985;28;19933;-72
2022/10/02 11:36:05;;;;;;;;;;;14.40;99.90;;;;;;4968649;28;19926;-73
2022/10/02 11:38:37;;;;;;;;;;;14.40;99.90;;;;;;4967792;28;19933;-73
2022/10/02 11:41:21;;;;;;;;;;;14.40;99.90;;;;;;4967730;28;19926;-73
2022/10/02 11:43:46;;;;;;;;;;;14.50;99.90;;;;;;4961676;28;19927;-73
2022/10/02 11:46:24;;;;;;;;;;;14.50;99.90;;;;;;4968124;28;19973;-70
2022/10/02 11:49:09;;;;;;;;;;;14.50;99.90;;;;;;4962549;28;19930;-72
2022/10/02 11:51:45;;;;;;;;;;;14.50;99.90;;;;;;4963186;28;19926;-71
2022/10/02 11:54:19;;;;;;;;;;;14.50;99.90;;;;;;4964644;28;19933;-72
2022/10/02 11:56:44;;;;;;;;;;;14.60;99.90;;;;;;4969405;28;19925;-73
2022/10/02 11:59:23;;;;;;;;;;;14.60;99.90;;;;;;4967174;28;19938;-72
2022/10/02 12:01:53;;;;;;;;;;;14.70;99.90;;;;;;4965031;28;20439;-73
2022/10/02 12:04:28;;;;;;;;;;;14.80;99.90;;;;;;4977020;28;19929;-72
2022/10/02 12:07:09;;;;;;;;;;;14.80;99.90;;;;;;5002454;28;19980;-71
2022/10/02 12:09:53;;;;;;;;;;;14.90;99.90;;;;;;4969604;28;20012;-72
2022/10/02 12:12:25;;;;;;;;;;;14.90;99.90;;;;;;4980873;28;19926;-72
2022/10/02 12:15:05;;;;;;;;;;;15.00;99.90;;;;;;4995980;28;19937;-72
2022/10/02 12:17:31;;;;;;;;;;;15.00;99.90;;;;;;4987537;28;20384;-72
2022/10/02 12:28:57;;;;;;;;;;;15.20;99.90;;;;;;5013611;28;20020;-74
2022/10/02 12:31:31;;;;;;;;;;;15.20;99.90;;;;;;4986410;28;20017;-72
2022/10/02 12:34:00;;;;;;;;;;;15.20;99.90;;;;;;4992016;28;19945;-71
2022/10/02 12:36:46;;;;;;;;;;;15.20;99.90;;;;;;4971617;28;19972;-72
2022/10/02 12:39:15;;;;;;;;;;;15.20;99.90;;;;;;5020100;28;19925;-72
2022/10/02 12:41:59;;;;;;;;;;;15.10;99.90;;;;;;5001298;28;19926;-72
2022/10/02 12:44:42;;;;;;;;;;;15.00;99.90;;;;;;5002557;28;19929;-71
2022/10/02 12:47:27;;;;;;;;;;;15.00;99.90;;;;;;4958440;28;19937;-71
2022/10/02 12:50:01;;;;;;;;;;;15.00;99.90;;;;;;4985836;28;19975;-71
2022/10/02 12:52:27;;;;;;;;;;;15.00;99.90;;;;;;4979911;28;20308;-73
2022/10/02 12:54:53;;;;;;;;;;;14.90;99.90;;;;;;5006297;28;19930;-72
2022/10/02 13:00:14;;;;;;;;;;;15.00;99.90;;;;;;4993165;28;19926;-72
2022/10/02 13:02:55;;;;;;;;;;;15.00;99.90;;;;;;4970967;28;19965;-73
2022/10/02 13:05:23;;;;;;;;;;;15.10;99.90;;;;;;4986908;28;19929;-72
2022/10/02 13:08:08;;;;;;;;;;;15.00;99.90;;;;;;4989028;28;20411;-73
2022/10/02 13:10:34;;;;;;;;;;;15.00;99.90;;;;;;4967495;28;19930;-76
2022/10/02 13:13:18;;;;;;;;;;;15.00;99.90;;;;;;4993058;28;19933;-76
2022/10/02 13:15:53;;;;;;;;;;;15.00;99.90;;;;;;4970577;28;19925;-75
2022/10/02 13:18:19;;;;;;;;;;;15.00;99.90;;;;;;4988068;28;20000;-75
2022/10/02 13:21:14;;;;;;;;;;;15.00;99.90;;;;;;4969436;28;20029;-74
2022/10/02 13:23:55;;;;;;;;;;;15.00;99.90;;;;;;4953207;28;19930;-73
2022/10/02 13:26:26;;;;;;;;;;;14.90;99.90;;;;;;4977634;28;19933;-76
2022/10/02 13:29:11;;;;;;;;;;;15.00;99.90;;;;;;4984425;28;19988;-78
2022/10/02 13:31:55;;;;;;;;;;;15.00;99.90;;;;;;4967153;28;19933;-75
2022/10/02 13:34:27;;;;;;;;;;;15.00;99.90;;;;;;4998186;28;20006;-74
2022/10/02 13:37:10;;;;;;;;;;;15.00;99.90;;;;;;4964827;28;19933;-71
2022/10/02 13:39:38;;;;;;;;;;;15.00;99.90;;;;;;4980288;28;19926;-71
2022/10/02 13:42:13;;;;;;;;;;;15.00;99.90;;;;;;4960929;28;19945;-72
2022/10/02 13:44:59;;;;;;;;;;;15.00;99.90;;;;;;4978608;28;20333;-74
2022/10/02 13:47:38;;;;;;;;;;;15.00;99.90;;;;;;4966910;28;19957;-73
2022/10/02 13:50:13;;;;;;;;;;;15.10;99.90;;;;;;4964249;28;19926;-73
2022/10/02 13:52:43;;;;;;;;;;;15.10;99.90;;;;;;4995208;28;20017;-73
2022/10/02 13:55:19;;;;;;;;;;;15.10;99.90;;;;;;4965129;28;19981;-74
2022/10/02 13:58:00;;;;;;;;;;;15.10;99.90;;;;;;4966867;28;20309;-72
2022/10/02 14:00:37;;;;;;;;;;;15.10;99.90;;;;;;4998670;28;19926;-74
2022/10/02 14:03:18;;;;;;;;;;;15.10;99.90;;;;;;4955508;28;20341;-73
2022/10/02 14:05:48;;;;;;;;;;;15.10;99.90;;;;;;4977460;28;20017;-72
2022/10/02 14:08:19;;;;;;;;;;;15.10;99.90;;;;;;4948216;28;19998;-73
2022/10/02 14:10:45;;;;;;;;;;;15.10;99.90;;;;;;4946180;29;20025;-75
2022/10/02 14:13:22;;;;;;;;;;;15.00;99.90;;;;;;4978213;28;20042;-73
2022/10/02 14:16:01;;;;;;;;;;;15.00;99.90;;;;;;4947227;28;19934;-74
2022/10/02 14:18:45;;;;;;;;;;;15.10;99.90;;;;;;4942934;29;20385;-74
2022/10/02 14:21:31;;;;;;;;;;;15.00;99.90;;;;;;4975342;28;20385;-74
2022/10/02 14:23:59;;;;;;;;;;;15.00;99.90;;;;;;4937745;28;19942;-75
2022/10/02 14:26:31;;;;;;;;;;;15.00;99.90;;;;;;4977087;28;20353;-75
2022/10/02 14:29:02;;;;;;;;;;;14.90;99.90;;;;;;4946694;29;20054;-75
2022/10/02 14:31:40;;;;;;;;;;;14.90;99.90;;;;;;4977451;28;19926;-75
2022/10/02 14:34:05;;;;;;;;;;;14.80;99.90;;;;;;4944121;29;19954;-75
2022/10/02 14:36:56;;;;;;;;;;;14.90;99.90;;;;;;4945916;29;19934;-73
2022/10/02 14:39:21;;;;;;;;;;;14.80;99.90;;;;;;4971596;28;19930;-76
2022/10/02 14:42:05;;;;;;;;;;;14.80;99.90;;;;;;4946566;29;19927;-76
2022/10/02 14:44:30;;;;;;;;;;;14.80;99.90;;;;;;4950437;28;19981;-77
2022/10/02 14:47:02;;;;;;;;;;;14.80;99.90;;;;;;4976833;28;19973;-75
2022/10/02 14:49:27;;;;;;;;;;;14.80;99.90;;;;;;4945649;29;20017;-75
2022/10/02 14:52:05;;;;;;;;;;;14.90;99.90;;;;;;4944338;29;20456;-74
2022/10/02 14:54:31;;;;;;;;;;;14.90;99.90;;;;;;4943421;29;20021;-75
2022/10/02 14:57:06;;;;;;;;;;;14.90;99.90;;;;;;4946916;29;20445;-74
2022/10/02 15:00:02;;;;;;;;;;;14.90;99.90;;;;;;4945796;28;20432;-75
2022/10/02 15:02:28;;;;;;;;;;;15.00;99.90;;;;;;4923498;28;19993;-74
2022/10/02 15:04:53;;;;;;;;;;;15.00;99.90;;;;;;4964091;28;19926;-73
2022/10/02 15:07:27;;;;;;;;;;;15.00;99.90;;;;;;4970079;28;20319;-74
2022/10/02 15:10:15;;;;;;;;;;;15.00;99.90;;;;;;4965195;28;19949;-74
2022/10/02 15:13:02;;;;;;;;;;;15.00;99.90;;;;;;4958516;28;19930;-75